createdAt,value
2018-08-11T00:00:34.629Z,2.00
2018-08-11T00:03:03.856Z,1.57
2018-08-11T00:05:33.119Z,1.53
2018-08-11T00:08:02.451Z,1.40
2018-08-11T00:10:31.684Z,1.70
2018-08-11T00:13:00.949Z,1.70
2018-08-11T00:15:30.253Z,1.53
2018-08-11T00:17:59.287Z,1.30
2018-08-11T00:20:29.604Z,1.60
2018-08-11T00:22:58.824Z,1.47
2018-08-11T00:25:28.076Z,1.40
2018-08-11T00:27:57.309Z,1.73
2018-08-11T00:30:26.560Z,1.40
2018-08-11T00:32:55.561Z,1.47
2018-08-11T00:35:24.834Z,1.33
2018-08-11T00:38:00.279Z,1.40
2018-08-11T00:40:29.297Z,1.60
2018-08-11T00:42:58.633Z,1.60
2018-08-11T00:45:27.834Z,1.77
2018-08-11T00:47:57.107Z,1.47
2018-08-11T00:50:30.542Z,1.40
2018-08-11T00:52:59.853Z,1.30
2018-08-11T00:55:28.937Z,1.90
2018-08-11T00:57:58.261Z,1.70
2018-08-11T01:00:27.496Z,1.53
2018-08-11T01:02:56.756Z,2.00
2018-08-11T01:05:26.058Z,1.93
2018-08-11T01:07:55.789Z,1.50
2018-08-11T01:10:25.040Z,1.90
2018-08-11T01:12:54.239Z,1.40
2018-08-11T01:15:23.853Z,1.47
2018-08-11T01:17:53.256Z,1.33
2018-08-11T01:20:22.574Z,1.60
2018-08-11T01:22:51.774Z,1.33
2018-08-11T01:25:20.801Z,1.50
2018-08-11T01:27:50.032Z,1.53
2018-08-11T01:30:21.698Z,1.13
2018-08-11T01:32:50.984Z,1.47
2018-08-11T01:35:20.017Z,1.33
2018-08-11T01:37:49.241Z,1.20
2018-08-11T01:40:18.541Z,1.50
2018-08-11T01:42:49.083Z,1.23
2018-08-11T01:45:18.779Z,1.30
2018-08-11T01:47:48.088Z,1.40
2018-08-11T01:50:17.286Z,1.50
2018-08-11T01:52:47.460Z,1.47
2018-08-11T01:55:17.942Z,1.40
2018-08-11T01:57:47.007Z,1.07
2018-08-11T02:00:17.349Z,1.20
2018-08-11T02:02:46.577Z,1.30
2018-08-11T02:05:15.815Z,1.50
2018-08-11T02:07:45.597Z,1.40
2018-08-11T02:10:19.075Z,1.40
2018-08-11T02:12:48.800Z,1.40
2018-08-11T02:15:17.820Z,1.30
2018-08-11T02:17:47.144Z,1.33
2018-08-11T02:20:17.594Z,1.07
2018-08-11T02:22:47.821Z,1.10
2018-08-11T02:25:17.149Z,1.30
2018-08-11T02:27:46.375Z,1.20
2018-08-11T02:30:16.916Z,1.27
2018-08-11T02:32:45.980Z,1.20
2018-08-11T02:35:15.534Z,1.10
2018-08-11T02:37:51.579Z,1.20
2018-08-11T02:40:20.831Z,1.00
2018-08-11T02:42:50.090Z,1.40
2018-08-11T02:45:19.412Z,1.20
2018-08-11T02:47:48.676Z,0.90
2018-08-11T02:50:17.969Z,1.20
2018-08-11T02:52:47.358Z,1.30
2018-08-11T02:55:16.352Z,1.27
2018-08-11T02:57:45.636Z,1.00
2018-08-11T03:00:14.622Z,1.30
2018-08-11T03:02:43.934Z,1.10
2018-08-11T03:05:13.136Z,1.43
2018-08-11T03:07:42.405Z,1.37
2018-08-11T03:10:12.418Z,1.10
2018-08-11T03:12:42.161Z,1.40
2018-08-11T03:15:12.793Z,1.20
2018-08-11T03:17:42.210Z,1.27
2018-08-11T03:20:13.390Z,1.30
2018-08-11T03:22:43.213Z,1.20
2018-08-11T03:25:12.461Z,1.20
2018-08-11T03:27:41.679Z,1.33
2018-08-11T03:30:10.945Z,1.30
2018-08-11T03:32:40.222Z,1.27
2018-08-11T03:35:09.444Z,1.20
2018-08-11T03:37:38.686Z,1.23
2018-08-11T03:40:09.919Z,1.40
2018-08-11T03:42:39.516Z,1.30
2018-08-11T03:45:08.776Z,1.40
2018-08-11T03:47:38.108Z,1.30
2018-08-11T03:50:07.729Z,1.40
2018-08-11T03:52:37.291Z,1.17
2018-08-11T03:55:06.825Z,1.40
2018-08-11T03:57:36.031Z,1.33
2018-08-11T04:00:07.813Z,1.50
2018-08-11T04:02:37.214Z,1.20
2018-08-11T04:05:06.497Z,1.37
2018-08-11T04:07:35.716Z,1.20
2018-08-11T04:10:05.694Z,1.20
2018-08-11T04:12:34.950Z,1.30
2018-08-11T04:15:03.985Z,1.10
2018-08-11T04:17:41.484Z,1.20
2018-08-11T04:20:11.802Z,1.17
2018-08-11T04:22:41.023Z,1.10
2018-08-11T04:25:10.203Z,1.13
2018-08-11T04:27:39.426Z,1.30
2018-08-11T04:30:10.459Z,1.40
2018-08-11T04:32:39.668Z,1.37
2018-08-11T04:35:09.331Z,1.40
2018-08-11T04:37:38.536Z,1.47
2018-08-11T04:40:07.779Z,1.40
2018-08-11T04:42:37.000Z,1.70
2018-08-11T04:45:06.986Z,1.40
2018-08-11T04:47:36.260Z,1.40
2018-08-11T04:50:05.884Z,1.40
2018-08-11T04:52:35.200Z,1.40
2018-08-11T04:55:04.730Z,1.20
2018-08-11T04:57:34.030Z,1.57
2018-08-11T05:00:03.354Z,1.43
2018-08-11T05:02:32.621Z,1.37
2018-08-11T05:05:01.819Z,1.27
2018-08-11T05:07:31.084Z,1.30
2018-08-11T05:10:00.320Z,1.53
2018-08-11T05:12:29.278Z,1.50
2018-08-11T05:14:58.503Z,1.40
2018-08-11T05:17:27.440Z,1.70
2018-08-11T05:19:56.745Z,1.80
2018-08-11T05:22:26.014Z,1.70
2018-08-11T05:24:55.249Z,1.80
2018-08-11T05:27:24.220Z,1.57
2018-08-11T05:29:53.513Z,1.47
2018-08-11T05:32:22.589Z,1.73
2018-08-11T05:34:51.881Z,1.63
2018-08-11T05:37:21.147Z,1.50
2018-08-11T05:39:50.497Z,1.60
2018-08-11T05:42:19.741Z,1.53
2018-08-11T05:44:49.065Z,2.00
2018-08-11T05:47:18.341Z,1.27
2018-08-11T05:49:47.594Z,1.50
2018-08-11T05:52:16.852Z,1.40
2018-08-11T05:54:46.062Z,1.60
2018-08-11T05:57:14.999Z,1.70
2018-08-11T05:59:44.226Z,1.30
2018-08-11T06:02:13.434Z,1.20
2018-08-11T06:04:42.630Z,1.37
2018-08-11T06:07:11.890Z,1.43
2018-08-11T06:09:41.101Z,1.20
2018-08-11T06:12:10.365Z,1.10
2018-08-11T06:14:39.633Z,1.20
2018-08-11T06:17:08.929Z,0.90
2018-08-11T06:19:38.107Z,1.00
2018-08-11T06:22:07.431Z,1.10
2018-08-11T06:24:36.763Z,0.90
2018-08-11T06:27:06.182Z,0.80
2018-08-11T06:29:35.393Z,1.10
2018-08-11T06:32:04.706Z,1.17
2018-08-11T06:34:33.986Z,1.20
2018-08-11T06:37:03.194Z,1.10
2018-08-11T06:39:32.453Z,1.13
2018-08-11T06:42:01.478Z,0.97
2018-08-11T06:44:30.510Z,1.17
2018-08-11T06:46:59.809Z,1.00
2018-08-11T06:49:28.796Z,0.93
2018-08-11T06:51:57.736Z,1.10
2018-08-11T06:54:26.701Z,1.20
2018-08-11T06:56:55.949Z,0.87
2018-08-11T06:59:25.185Z,0.90
2018-08-11T07:01:54.136Z,1.07
2018-08-11T07:04:23.339Z,1.10
2018-08-11T07:06:52.569Z,0.87
2018-08-11T07:09:21.858Z,0.80
2018-08-11T07:11:50.840Z,1.00
2018-08-11T07:14:19.829Z,1.00
2018-08-11T07:16:49.029Z,0.80
2018-08-11T07:19:18.242Z,1.20
2018-08-11T07:21:47.837Z,1.10
2018-08-11T07:24:17.082Z,1.00
2018-08-11T07:26:46.321Z,1.03
2018-08-11T07:29:15.553Z,1.00
2018-08-11T07:31:44.565Z,1.00
2018-08-11T07:34:13.774Z,0.90
2018-08-11T07:36:42.834Z,0.80
2018-08-11T07:39:12.081Z,0.70
2018-08-11T07:41:41.333Z,0.60
2018-08-11T07:44:10.533Z,0.70
2018-08-11T07:46:39.789Z,1.00
2018-08-11T07:49:09.150Z,0.70
2018-08-11T07:51:38.351Z,0.90
2018-08-11T07:54:07.365Z,0.73
2018-08-11T07:56:36.710Z,0.83
2018-08-11T07:59:06.070Z,0.87
2018-08-11T08:01:35.510Z,0.97
2018-08-11T08:04:04.872Z,1.10
2018-08-11T08:06:33.901Z,0.70
2018-08-11T08:09:03.229Z,0.97
2018-08-11T08:11:32.488Z,1.10
2018-08-11T08:14:01.763Z,1.00
2018-08-11T08:16:31.041Z,0.70
2018-08-11T08:19:00.055Z,1.00
2018-08-11T08:21:29.374Z,1.00
2018-08-11T08:23:58.400Z,0.87
2018-08-11T08:26:27.621Z,0.60
2018-08-11T08:28:56.718Z,1.07
2018-08-11T08:31:25.712Z,1.00
2018-08-11T08:33:55.091Z,1.20
2018-08-11T08:36:24.258Z,0.90
2018-08-11T08:38:53.538Z,1.00
2018-08-11T08:41:22.717Z,0.80
2018-08-11T08:43:51.973Z,1.20
2018-08-11T08:46:20.980Z,1.03
2018-08-11T08:48:50.502Z,1.00
2018-08-11T08:51:19.703Z,1.00
2018-08-11T08:53:48.681Z,1.20
2018-08-11T08:56:17.907Z,1.23
2018-08-11T08:58:46.930Z,1.00
2018-08-11T09:01:16.169Z,1.00
2018-08-11T09:03:45.401Z,0.90
2018-08-11T09:06:14.642Z,0.90
2018-08-11T09:08:43.604Z,1.50
2018-08-11T09:11:12.614Z,1.10
2018-08-11T09:13:41.695Z,1.07
2018-08-11T09:16:10.910Z,1.33
2018-08-11T09:18:39.899Z,1.50
2018-08-11T09:21:08.914Z,1.30
2018-08-11T09:23:38.026Z,1.13
2018-08-11T09:26:08.074Z,1.47
2018-08-11T09:28:37.379Z,1.30
2018-08-11T09:31:06.411Z,1.53
2018-08-11T09:33:35.654Z,1.50
2018-08-11T09:36:04.914Z,1.10
2018-08-11T09:38:34.219Z,1.17
2018-08-11T09:41:03.471Z,1.40
2018-08-11T09:43:32.756Z,1.30
2018-08-11T09:46:02.099Z,1.20
2018-08-11T09:48:31.442Z,1.10
2018-08-11T09:51:00.483Z,1.90
2018-08-11T09:53:29.734Z,1.60
2018-08-11T09:55:59.045Z,1.20
2018-08-11T09:58:28.658Z,1.60
2018-08-11T10:01:01.865Z,1.33
2018-08-11T10:03:30.910Z,1.47
2018-08-11T10:06:00.222Z,1.30
2018-08-11T10:08:29.226Z,1.40
2018-08-11T10:10:58.453Z,1.30
2018-08-11T10:13:27.627Z,1.40
2018-08-11T10:15:56.848Z,1.70
2018-08-11T10:18:26.065Z,1.37
2018-08-11T10:20:55.077Z,1.40
2018-08-11T10:23:24.220Z,1.10
2018-08-11T10:25:53.489Z,1.10
2018-08-11T10:28:22.878Z,1.43
2018-08-11T10:30:52.235Z,1.30
2018-08-11T10:33:21.487Z,1.20
2018-08-11T10:35:50.815Z,0.90
2018-08-11T10:38:20.034Z,0.97
2018-08-11T10:40:49.030Z,1.33
2018-08-11T10:43:18.360Z,1.50
2018-08-11T10:45:47.643Z,1.10
2018-08-11T10:48:16.938Z,1.30
2018-08-11T10:50:46.332Z,1.43
2018-08-11T10:53:15.602Z,1.47
2018-08-11T10:55:44.800Z,1.10
2018-08-11T10:58:13.849Z,1.40
2018-08-11T11:00:43.093Z,1.13
2018-08-11T11:03:12.462Z,1.10
2018-08-11T11:05:41.688Z,0.73
2018-08-11T11:08:10.922Z,1.70
2018-08-11T11:10:40.215Z,0.90
2018-08-11T11:13:09.462Z,1.00
2018-08-11T11:15:38.865Z,0.70
2018-08-11T11:18:08.255Z,1.03
2018-08-11T11:20:37.590Z,0.97
2018-08-11T11:23:06.854Z,1.20
2018-08-11T11:25:36.137Z,1.20
2018-08-11T11:28:05.146Z,1.03
2018-08-11T11:30:34.453Z,1.33
2018-08-11T11:33:03.687Z,1.10
2018-08-11T11:35:32.943Z,1.13
2018-08-11T11:38:01.968Z,0.90
2018-08-11T11:40:31.258Z,0.90
2018-08-11T11:43:00.490Z,0.80
2018-08-11T11:45:29.797Z,0.80
2018-08-11T11:47:59.035Z,1.00
2018-08-11T11:50:28.326Z,0.90
2018-08-11T11:52:57.594Z,1.03
2018-08-11T11:55:26.675Z,1.20
2018-08-11T11:57:55.939Z,1.00
2018-08-11T12:00:25.224Z,0.90
2018-08-11T12:02:54.282Z,1.00
2018-08-11T12:05:23.873Z,0.80
2018-08-11T12:07:53.071Z,0.80
2018-08-11T12:10:22.391Z,0.90
2018-08-11T12:12:51.672Z,0.70
2018-08-11T12:15:20.967Z,0.70
2018-08-11T12:17:50.214Z,0.77
2018-08-11T12:20:19.442Z,0.70
2018-08-11T12:22:48.497Z,0.90
2018-08-11T12:25:17.798Z,1.17
2018-08-11T12:27:48.005Z,0.90
2018-08-11T12:30:17.004Z,0.90
2018-08-11T12:32:46.231Z,0.83
2018-08-11T12:35:15.369Z,0.70
2018-08-11T12:37:44.686Z,0.73
2018-08-11T12:40:13.974Z,1.10
2018-08-11T12:42:43.212Z,0.70
2018-08-11T12:45:12.388Z,0.90
2018-08-11T12:47:41.679Z,0.70
2018-08-11T12:50:10.957Z,1.40
2018-08-11T12:52:40.236Z,1.20
2018-08-11T12:55:09.455Z,1.07
2018-08-11T12:57:38.433Z,0.90
2018-08-11T13:00:09.173Z,0.77
2018-08-11T13:02:38.638Z,0.90
2018-08-11T13:05:07.889Z,0.80
2018-08-11T13:07:37.982Z,0.90
2018-08-11T13:10:07.083Z,0.77
2018-08-11T13:12:36.437Z,0.70
2018-08-11T13:15:06.855Z,0.90
2018-08-11T13:17:36.067Z,0.80
2018-08-11T13:20:06.949Z,0.80
2018-08-11T13:22:36.289Z,0.70
2018-08-11T13:25:05.613Z,1.00
2018-08-11T13:27:34.614Z,0.90
2018-08-11T13:30:04.368Z,1.00
2018-08-11T13:32:33.386Z,0.53
2018-08-11T13:35:02.411Z,0.80
2018-08-11T13:37:31.472Z,0.70
2018-08-11T13:40:00.657Z,0.83
2018-08-11T13:42:30.015Z,0.97
2018-08-11T13:44:59.342Z,0.80
2018-08-11T13:47:28.604Z,1.20
2018-08-11T13:49:57.920Z,1.07
2018-08-11T13:52:26.916Z,1.00
2018-08-11T13:54:55.929Z,0.93
2018-08-11T13:57:25.156Z,0.90
2018-08-11T13:59:54.357Z,0.83
2018-08-11T14:02:23.574Z,1.17
2018-08-11T14:04:52.797Z,1.30
2018-08-11T14:07:22.074Z,1.00
2018-08-11T14:09:51.085Z,1.43
2018-08-11T14:12:20.408Z,0.90
2018-08-11T14:14:49.414Z,0.97
2018-08-11T14:17:18.743Z,0.80
2018-08-11T14:19:47.978Z,1.07
2018-08-11T14:22:17.186Z,0.90
2018-08-11T14:24:46.474Z,1.00
2018-08-11T14:27:15.690Z,1.10
2018-08-11T14:29:44.985Z,1.03
2018-08-11T14:32:14.157Z,1.00
2018-08-11T14:34:43.429Z,1.23
2018-08-11T14:37:12.706Z,1.33
2018-08-11T14:39:41.896Z,1.20
2018-08-11T14:42:11.108Z,1.40
2018-08-11T14:44:40.314Z,1.07
2018-08-11T14:47:09.604Z,1.10
2018-08-11T14:49:38.827Z,1.00
2018-08-11T14:52:08.100Z,1.07
2018-08-11T14:54:37.374Z,1.57
2018-08-11T14:57:06.879Z,1.00
2018-08-11T14:59:35.887Z,1.30
2018-08-11T15:02:05.198Z,1.40
2018-08-11T15:04:34.454Z,1.20
2018-08-11T15:07:03.732Z,1.60
2018-08-11T15:09:32.725Z,1.10
2018-08-11T15:12:01.898Z,1.30
2018-08-11T15:14:30.905Z,1.10
2018-08-11T15:17:00.198Z,1.10
2018-08-11T15:19:29.420Z,1.03
2018-08-11T15:21:58.396Z,1.50
2018-08-11T15:24:27.406Z,1.47
2018-08-11T15:26:56.433Z,1.63
2018-08-11T15:29:25.621Z,1.10
2018-08-11T15:31:54.612Z,2.30
2018-08-11T15:34:23.574Z,1.53
2018-08-11T15:36:52.833Z,1.30
2018-08-11T15:39:22.106Z,1.40
2018-08-11T15:41:51.397Z,1.13
2018-08-11T15:44:20.587Z,1.03
2018-08-11T15:46:52.593Z,1.20
2018-08-11T15:49:21.572Z,1.23
2018-08-11T15:51:50.907Z,1.70
2018-08-11T15:54:21.325Z,1.20
2018-08-11T15:56:50.505Z,1.50
2018-08-11T15:59:19.734Z,1.03
2018-08-11T16:01:48.772Z,1.10
2018-08-11T16:04:18.037Z,1.10
2018-08-11T16:06:47.509Z,1.03
2018-08-11T16:09:16.874Z,1.63
2018-08-11T16:11:46.235Z,1.37
2018-08-11T16:14:15.247Z,1.30
2018-08-11T16:16:44.650Z,1.50
2018-08-11T16:19:13.875Z,1.27
2018-08-11T16:21:42.942Z,1.10
2018-08-11T16:24:12.174Z,1.30
2018-08-11T16:26:41.229Z,1.53
2018-08-11T16:29:10.294Z,1.00
2018-08-11T16:31:39.531Z,1.10
2018-08-11T16:34:08.514Z,1.30
2018-08-11T16:36:37.781Z,1.27
2018-08-11T16:39:08.537Z,1.30
2018-08-11T16:41:38.245Z,1.40
2018-08-11T16:44:07.656Z,1.13
2018-08-11T16:46:36.970Z,1.10
2018-08-11T16:49:06.276Z,1.70
2018-08-11T16:51:35.447Z,1.20
2018-08-11T16:54:04.708Z,1.10
2018-08-11T16:56:33.929Z,1.20
2018-08-11T16:59:03.284Z,0.93
2018-08-11T17:01:32.538Z,1.10
2018-08-11T17:04:01.828Z,1.20
2018-08-11T17:06:31.067Z,1.10
2018-08-11T17:09:00.302Z,1.10
2018-08-11T17:11:29.587Z,1.20
2018-08-11T17:13:58.846Z,1.23
2018-08-11T17:16:28.116Z,1.10
2018-08-11T17:18:57.391Z,1.20
2018-08-11T17:21:26.366Z,1.60
2018-08-11T17:23:55.634Z,1.70
2018-08-11T17:26:24.622Z,1.60
2018-08-11T17:28:53.926Z,1.30
2018-08-11T17:31:23.135Z,1.60
2018-08-11T17:33:52.188Z,1.30
2018-08-11T17:36:21.425Z,1.30
2018-08-11T17:38:50.463Z,1.47
2018-08-11T17:41:19.934Z,1.10
2018-08-11T17:43:49.248Z,1.43
2018-08-11T17:46:18.546Z,1.20
2018-08-11T17:48:47.776Z,1.27
2018-08-11T17:51:16.769Z,1.20
2018-08-11T17:53:46.025Z,1.30
2018-08-11T17:56:15.261Z,1.37
2018-08-11T17:58:44.259Z,1.93
2018-08-11T18:01:13.501Z,2.00
2018-08-11T18:03:42.556Z,1.67
2018-08-11T18:06:11.807Z,1.23
2018-08-11T18:08:41.040Z,1.30
2018-08-11T18:11:10.328Z,1.00
2018-08-11T18:13:39.579Z,1.00
2018-08-11T18:16:08.635Z,1.20
2018-08-11T18:18:37.962Z,2.10
2018-08-11T18:21:07.288Z,1.90
2018-08-11T18:23:36.512Z,1.60
2018-08-11T18:26:05.583Z,1.40
2018-08-11T18:28:34.831Z,4.20
2018-08-11T18:31:04.121Z,2.20
2018-08-11T18:33:33.370Z,1.30
2018-08-11T18:36:02.598Z,1.30
2018-08-11T18:38:31.842Z,1.33
2018-08-11T18:41:01.146Z,1.00
2018-08-11T18:43:30.334Z,1.20
2018-08-11T18:45:59.547Z,1.80
2018-08-11T18:48:28.941Z,1.43
2018-08-11T18:50:58.157Z,1.30
2018-08-11T18:53:27.471Z,1.50
2018-08-11T18:55:56.723Z,1.30
2018-08-11T18:58:25.718Z,1.27
2018-08-11T19:00:55.045Z,1.40
2018-08-11T19:03:24.075Z,1.60
2018-08-11T19:05:53.484Z,1.60
2018-08-11T19:08:22.734Z,2.10
2018-08-11T19:10:52.033Z,1.63
2018-08-11T19:13:21.352Z,1.70
2018-08-11T19:15:50.517Z,1.57
2018-08-11T19:18:19.521Z,1.70
2018-08-11T19:20:48.767Z,1.90
2018-08-11T19:23:18.005Z,2.30
2018-08-11T19:25:47.405Z,1.90
2018-08-11T19:28:16.615Z,2.77
2018-08-11T19:30:45.814Z,3.00
2018-08-11T19:33:15.088Z,2.97
2018-08-11T19:35:44.305Z,2.90
2018-08-11T19:38:13.318Z,3.20
2018-08-11T19:40:42.609Z,2.93
2018-08-11T19:43:11.853Z,2.60
2018-08-11T19:45:40.844Z,2.47
2018-08-11T19:48:09.832Z,2.60
2018-08-11T19:50:39.100Z,1.93
2018-08-11T19:53:08.103Z,2.27
2018-08-11T19:55:37.287Z,2.30
2018-08-11T19:58:06.390Z,2.70
2018-08-11T20:00:35.344Z,2.30
2018-08-11T20:03:04.563Z,2.53
2018-08-11T20:05:33.873Z,2.10
2018-08-11T20:08:03.219Z,2.50
2018-08-11T20:10:32.176Z,2.17
2018-08-11T20:13:01.515Z,2.37
2018-08-11T20:15:30.810Z,2.77
2018-08-11T20:18:00.122Z,3.03
2018-08-11T20:20:29.423Z,2.33
2018-08-11T20:22:58.418Z,2.90
2018-08-11T20:25:27.893Z,2.67
2018-08-11T20:27:57.115Z,2.00
2018-08-11T20:30:26.354Z,1.73
2018-08-11T20:32:55.324Z,1.87
2018-08-11T20:35:24.581Z,1.80
2018-08-11T20:37:53.592Z,2.00
2018-08-11T20:40:22.836Z,2.30
2018-08-11T20:42:52.115Z,2.07
2018-08-11T20:45:21.337Z,2.60
2018-08-11T20:47:50.315Z,2.80
2018-08-11T20:50:19.363Z,3.30
2018-08-11T20:52:48.601Z,3.20
2018-08-11T20:55:17.873Z,2.53
2018-08-11T20:57:47.133Z,2.57
2018-08-11T21:00:16.374Z,2.50
2018-08-11T21:02:45.603Z,2.60
2018-08-11T21:05:15.102Z,2.20
2018-08-11T21:07:44.350Z,2.27
2018-08-11T21:10:15.380Z,2.10
2018-08-11T21:12:45.119Z,2.20
2018-08-11T21:15:14.452Z,2.10
2018-08-11T21:17:43.396Z,2.20
2018-08-11T21:20:13.420Z,2.50
2018-08-11T21:22:42.620Z,1.90
2018-08-11T21:25:12.420Z,1.97
2018-08-11T21:27:41.654Z,2.20
2018-08-11T21:30:12.804Z,2.30
2018-08-11T21:32:42.381Z,2.10
2018-08-11T21:35:11.499Z,2.20
2018-08-11T21:37:40.753Z,2.60
2018-08-11T21:40:12.909Z,3.03
2018-08-11T21:42:42.553Z,3.80
2018-08-11T21:45:11.793Z,4.20
2018-08-11T21:47:41.889Z,4.43
2018-08-11T21:50:11.449Z,3.57
2018-08-11T21:52:40.693Z,2.87
2018-08-11T21:55:10.309Z,2.80
2018-08-11T21:57:39.367Z,2.57
2018-08-11T22:00:41.285Z,2.63
2018-08-11T22:03:10.522Z,2.50
2018-08-11T22:05:39.771Z,2.37
2018-08-11T22:08:09.009Z,2.10
2018-08-11T22:10:38.035Z,1.97
2018-08-11T22:13:07.351Z,2.30
2018-08-11T22:15:36.727Z,2.10
2018-08-11T22:18:06.059Z,2.13
2018-08-11T22:20:35.290Z,2.60
2018-08-11T22:23:04.562Z,2.60
2018-08-11T22:25:33.909Z,2.30
2018-08-11T22:28:03.174Z,2.50
2018-08-11T22:30:32.430Z,2.60
2018-08-11T22:33:01.436Z,2.57
2018-08-11T22:35:30.681Z,2.57
2018-08-11T22:37:59.864Z,2.33
2018-08-11T22:40:29.091Z,2.77
2018-08-11T22:42:58.309Z,2.63
2018-08-11T22:45:27.542Z,2.13
2018-08-11T22:47:56.766Z,2.40
2018-08-11T22:50:25.973Z,1.73
2018-08-11T22:52:55.226Z,2.20
2018-08-11T22:55:24.166Z,2.10
2018-08-11T22:57:53.380Z,2.37
2018-08-11T23:00:22.841Z,2.03
2018-08-11T23:02:52.019Z,2.27
2018-08-11T23:05:21.816Z,2.17
2018-08-11T23:07:50.988Z,1.93
2018-08-11T23:10:20.209Z,2.00
2018-08-11T23:12:49.444Z,2.07
2018-08-11T23:15:19.907Z,2.03
2018-08-11T23:17:50.263Z,2.00
2018-08-11T23:20:19.484Z,1.93
2018-08-11T23:22:48.689Z,2.03
2018-08-11T23:25:17.914Z,1.80
2018-08-11T23:27:47.104Z,2.17
2018-08-11T23:30:17.558Z,1.77
2018-08-11T23:32:46.787Z,1.90
2018-08-11T23:35:15.791Z,1.83
2018-08-11T23:37:45.302Z,2.17
2018-08-11T23:40:14.483Z,1.60
2018-08-11T23:42:43.734Z,1.70
2018-08-11T23:45:15.139Z,1.90
2018-08-11T23:47:44.449Z,1.90
2018-08-11T23:50:14.572Z,1.60
2018-08-11T23:52:44.635Z,2.17
2018-08-11T23:55:14.911Z,1.40
2018-08-11T23:57:44.125Z,1.83
